Vol solo.

Vol solo.

Vol solo

Découvrez le pilotage du L39 avec un de nos instructeurs lors d’un vol inoubliable.

(ATO FR 0147)

Choisissez 3 périodes sur lesquelles vous souhaiteriez voler ! Nous vous recontacterons afin de réserver une de ces 3 périodes ensemble !

Nous n’effectuons pas de vols pendant la période hivernale, soit du 01/11/23 au 29/02/24. La saison 2024 débutera en mars.

Les réservations de vols sont actuellement fermées.
Pour toute demande ou information, veuillez nous contacter directement au 06.73.72.56.28.

Informations complémentaires

Durée

30 minutes, 45 minutes

Voir toute les actualités.

Avion / Hélicoptère / Simulateur*
Avion
METAR :

LFQA 231300Z AUTO VRB03KT CAVOK 23/11 Q1020


vue en direct sur l'aérodrome
facturation mentions légales politique de confidentialité
Cochet Concept
cx